createdAt,value
2023-03-26T00:00:02.455Z,59.29
2023-03-26T00:02:41.254Z,59.34
2023-03-26T00:05:14.586Z,59.34
2023-03-26T00:07:41.593Z,59.15
2023-03-26T00:10:09.388Z,59.16
2023-03-26T00:12:36.515Z,59.10
2023-03-26T00:15:04.619Z,59.47
2023-03-26T00:17:31.533Z,59.40
2023-03-26T00:19:59.744Z,59.82
2023-03-26T00:22:26.646Z,59.94
2023-03-26T00:24:53.580Z,59.76
2023-03-26T00:27:20.312Z,59.57
2023-03-26T00:29:48.331Z,59.46
2023-03-26T00:32:15.200Z,59.59
2023-03-26T00:34:42.445Z,59.61
2023-03-26T00:37:12.546Z,59.62
2023-03-26T00:39:42.154Z,59.92
2023-03-26T00:42:08.946Z,59.94
2023-03-26T00:44:35.866Z,60.02
2023-03-26T00:47:03.676Z,60.16
2023-03-26T00:49:32.031Z,60.15
2023-03-26T00:51:59.047Z,60.26
2023-03-26T00:54:25.854Z,60.58
2023-03-26T00:56:55.996Z,60.67
2023-03-26T00:59:25.012Z,60.85
2023-03-26T01:01:55.281Z,61.00
2023-03-26T01:04:30.741Z,60.83
2023-03-26T01:07:06.818Z,60.75
2023-03-26T01:09:43.016Z,60.93
2023-03-26T01:12:15.719Z,61.01
2023-03-26T01:14:43.524Z,61.11
2023-03-26T01:17:12.515Z,61.04
2023-03-26T01:19:45.590Z,61.16
2023-03-26T01:22:18.919Z,61.10
2023-03-26T01:24:52.303Z,60.91
2023-03-26T01:27:44.142Z,61.14
2023-03-26T01:30:43.576Z,61.23
2023-03-26T01:33:22.784Z,61.18
2023-03-26T01:36:08.270Z,61.27
2023-03-26T01:39:00.636Z,61.65
2023-03-26T01:41:42.816Z,62.06
2023-03-26T01:44:24.662Z,62.18
2023-03-26T01:46:52.605Z,62.29
2023-03-26T01:49:20.311Z,62.47
2023-03-26T01:51:47.735Z,62.56
2023-03-26T01:54:18.915Z,63.44
2023-03-26T01:57:09.826Z,63.85
2023-03-26T02:00:12.189Z,64.37
2023-03-26T02:03:00.104Z,64.33
2023-03-26T02:05:50.672Z,64.19
2023-03-26T02:09:01.669Z,63.98
2023-03-26T02:11:35.324Z,63.86
2023-03-26T02:14:06.065Z,63.85
2023-03-26T02:16:33.158Z,63.70
2023-03-26T02:19:00.388Z,63.96
2023-03-26T02:21:28.078Z,64.05
2023-03-26T02:24:03.627Z,64.29
2023-03-26T02:26:36.000Z,64.75
2023-03-26T02:29:21.359Z,65.14
2023-03-26T02:31:49.628Z,65.03
2023-03-26T02:34:17.137Z,65.46
2023-03-26T02:36:50.325Z,65.79
2023-03-26T02:39:17.159Z,65.91
2023-03-26T02:41:51.938Z,65.60
2023-03-26T02:44:18.943Z,65.38
2023-03-26T02:46:57.641Z,65.55
2023-03-26T02:49:39.247Z,65.45
2023-03-26T02:52:06.746Z,66.39
2023-03-26T02:54:35.266Z,66.43
2023-03-26T02:57:07.724Z,66.48
2023-03-26T02:59:53.371Z,66.53
2023-03-26T03:02:38.380Z,67.00
2023-03-26T03:05:28.905Z,67.41
2023-03-26T03:08:13.428Z,67.76
2023-03-26T03:11:02.748Z,67.59
2023-03-26T03:13:40.065Z,67.68
2023-03-26T03:16:08.311Z,67.70
2023-03-26T03:18:35.729Z,67.69
2023-03-26T03:21:03.598Z,67.75
2023-03-26T03:23:30.506Z,67.70
2023-03-26T03:26:13.446Z,67.55
2023-03-26T03:28:42.130Z,68.16
2023-03-26T03:31:09.152Z,67.88
2023-03-26T03:33:37.190Z,67.64
2023-03-26T03:36:10.394Z,67.81
2023-03-26T03:38:48.074Z,67.54
2023-03-26T03:41:18.860Z,67.42
2023-03-26T03:43:47.061Z,67.50
2023-03-26T03:46:21.090Z,66.84
2023-03-26T03:48:49.962Z,66.79
2023-03-26T03:51:31.352Z,66.77
2023-03-26T03:54:00.687Z,66.52
2023-03-26T03:56:45.772Z,66.74
2023-03-26T03:59:28.495Z,66.62
2023-03-26T04:01:55.401Z,66.38
2023-03-26T04:04:38.159Z,66.16
2023-03-26T04:07:08.502Z,65.77
2023-03-26T04:09:56.155Z,65.49
2023-03-26T04:12:31.120Z,65.13
2023-03-26T04:15:01.183Z,65.22
2023-03-26T04:17:30.469Z,65.61
2023-03-26T04:19:57.510Z,65.72
2023-03-26T04:22:34.687Z,65.45
2023-03-26T04:25:05.243Z,65.98
2023-03-26T04:27:46.313Z,66.15
2023-03-26T04:30:36.331Z,66.79
2023-03-26T04:33:25.096Z,67.25
2023-03-26T04:35:53.401Z,67.41
2023-03-26T04:38:20.713Z,67.66
2023-03-26T04:40:52.072Z,67.64
2023-03-26T04:43:47.521Z,67.72
2023-03-26T04:46:47.384Z,67.51
2023-03-26T04:49:20.802Z,67.39
2023-03-26T04:51:48.062Z,67.01
2023-03-26T04:54:34.731Z,67.06
2023-03-26T04:57:36.002Z,67.24
2023-03-26T05:00:19.014Z,67.17
2023-03-26T05:02:53.514Z,67.00
2023-03-26T05:05:20.934Z,66.86
2023-03-26T05:07:49.373Z,66.73
2023-03-26T05:10:20.642Z,66.53
2023-03-26T05:12:51.908Z,66.23
2023-03-26T05:15:32.033Z,66.04
2023-03-26T05:18:17.256Z,65.91
2023-03-26T05:20:48.415Z,65.73
2023-03-26T05:23:15.619Z,65.68
2023-03-26T05:25:47.188Z,65.40
2023-03-26T05:28:26.683Z,65.32
2023-03-26T05:31:08.146Z,65.16
2023-03-26T05:33:38.676Z,65.17
2023-03-26T05:36:15.438Z,64.95
2023-03-26T05:39:05.019Z,65.03
2023-03-26T05:42:09.987Z,64.89
2023-03-26T05:44:54.507Z,64.77
2023-03-26T05:47:27.378Z,64.81
2023-03-26T05:49:54.617Z,64.62
2023-03-26T05:52:21.857Z,64.77
2023-03-26T05:55:08.316Z,64.96
2023-03-26T05:57:54.252Z,65.23
2023-03-26T06:00:39.731Z,64.80
2023-03-26T06:03:12.737Z,64.64
2023-03-26T06:06:03.993Z,64.38
2023-03-26T06:09:02.246Z,64.16
2023-03-26T06:11:31.615Z,64.26
2023-03-26T06:13:59.434Z,64.02
2023-03-26T06:16:27.655Z,63.88
2023-03-26T06:19:33.548Z,63.63
2023-03-26T06:22:12.502Z,63.29
2023-03-26T06:25:08.854Z,63.24
2023-03-26T06:27:53.517Z,63.04
2023-03-26T06:30:43.370Z,62.90
2023-03-26T06:33:29.902Z,62.67
2023-03-26T06:35:57.779Z,62.48
2023-03-26T06:38:24.946Z,62.44
2023-03-26T06:40:51.954Z,61.82
2023-03-26T06:43:24.518Z,61.66
2023-03-26T06:46:11.922Z,61.19
2023-03-26T06:48:40.095Z,61.01
2023-03-26T06:51:25.379Z,60.43
2023-03-26T06:54:10.320Z,59.87
2023-03-26T06:56:47.956Z,59.66
2023-03-26T06:59:26.456Z,59.08
2023-03-26T07:02:11.917Z,58.74
2023-03-26T07:04:59.050Z,58.14
2023-03-26T07:07:46.247Z,57.79
2023-03-26T07:10:32.604Z,57.54
2023-03-26T07:13:35.495Z,57.25
2023-03-26T07:16:20.964Z,57.21
2023-03-26T07:19:14.018Z,56.79
2023-03-26T07:21:42.230Z,56.63
2023-03-26T07:24:23.428Z,56.87
2023-03-26T07:27:17.470Z,58.14
2023-03-26T07:30:03.418Z,56.67
2023-03-26T07:32:43.380Z,59.34
2023-03-26T07:36:11.600Z,58.47
2023-03-26T07:39:41.024Z,55.78
2023-03-26T07:42:38.988Z,55.55
2023-03-26T07:45:39.584Z,53.68
2023-03-26T07:48:29.620Z,53.42
2023-03-26T07:51:12.885Z,53.52
2023-03-26T07:54:00.530Z,53.20
2023-03-26T07:57:21.191Z,54.83
2023-03-26T08:00:19.304Z,55.84
2023-03-26T08:03:01.399Z,53.41
2023-03-26T08:06:22.367Z,53.12
2023-03-26T08:09:38.497Z,51.94
2023-03-26T08:12:52.767Z,51.92
2023-03-26T08:15:45.898Z,51.97
2023-03-26T08:18:27.334Z,52.20
2023-03-26T08:21:01.009Z,54.65
2023-03-26T08:23:35.758Z,53.10
2023-03-26T08:26:27.930Z,51.76
2023-03-26T08:28:55.364Z,52.40
2023-03-26T08:31:32.980Z,50.36
2023-03-26T08:34:00.123Z,52.50
2023-03-26T08:36:27.762Z,50.53
2023-03-26T08:38:54.626Z,50.62
2023-03-26T08:41:25.273Z,50.36
2023-03-26T08:44:22.841Z,49.53
2023-03-26T08:47:55.742Z,49.33
2023-03-26T08:50:43.463Z,49.19
2023-03-26T08:53:16.091Z,49.12
2023-03-26T08:55:57.315Z,48.89
2023-03-26T08:58:52.047Z,48.42
2023-03-26T09:01:56.498Z,48.50
2023-03-26T09:05:20.367Z,48.39
2023-03-26T09:08:14.052Z,48.47
2023-03-26T09:10:51.252Z,47.80
2023-03-26T09:13:32.987Z,47.74
2023-03-26T09:16:18.292Z,47.11
2023-03-26T09:19:15.744Z,47.38
2023-03-26T09:22:16.835Z,47.02
2023-03-26T09:25:25.301Z,46.91
2023-03-26T09:28:04.076Z,46.97
2023-03-26T09:30:49.082Z,46.89
2023-03-26T09:33:32.860Z,46.48
2023-03-26T09:36:21.766Z,46.76
2023-03-26T09:39:08.841Z,47.37
2023-03-26T09:41:40.064Z,47.95
2023-03-26T09:44:18.718Z,46.01
2023-03-26T09:46:51.248Z,46.24
2023-03-26T09:49:50.263Z,47.00
2023-03-26T09:52:34.949Z,46.33
2023-03-26T09:55:29.566Z,45.51
2023-03-26T09:58:19.213Z,45.27
2023-03-26T10:01:12.544Z,45.89
2023-03-26T10:04:40.380Z,45.15
2023-03-26T10:07:16.182Z,45.12
2023-03-26T10:10:01.685Z,44.76
2023-03-26T10:12:37.384Z,44.58
2023-03-26T10:15:25.240Z,44.18
2023-03-26T10:18:27.559Z,43.79
2023-03-26T10:21:07.202Z,44.17
2023-03-26T10:23:45.272Z,43.05
2023-03-26T10:26:33.521Z,43.75
2023-03-26T10:29:32.268Z,42.66
2023-03-26T10:32:28.779Z,45.18
2023-03-26T10:35:46.659Z,45.67
2023-03-26T10:38:37.270Z,45.87
2023-03-26T10:41:09.767Z,46.15
2023-03-26T10:44:05.230Z,45.74
2023-03-26T10:47:11.353Z,47.00
2023-03-26T10:50:01.338Z,47.30
2023-03-26T10:52:37.829Z,47.28
2023-03-26T10:55:20.237Z,47.14
2023-03-26T10:57:59.239Z,47.72
2023-03-26T11:00:29.187Z,48.24
2023-03-26T11:03:33.950Z,47.91
2023-03-26T11:06:06.910Z,48.51
2023-03-26T11:08:45.048Z,48.36
2023-03-26T11:11:20.416Z,48.58
2023-03-26T11:14:33.887Z,46.54
2023-03-26T11:17:40.864Z,41.36
2023-03-26T11:20:32.037Z,39.73
2023-03-26T11:23:31.026Z,39.32
2023-03-26T11:26:04.988Z,39.06
2023-03-26T11:29:03.962Z,38.32
2023-03-26T11:32:03.096Z,40.23
2023-03-26T11:34:45.009Z,38.39
2023-03-26T11:37:18.774Z,38.51
2023-03-26T11:39:56.430Z,38.09
2023-03-26T11:42:27.614Z,38.24
2023-03-26T11:45:24.235Z,38.01
2023-03-26T11:47:56.042Z,38.10
2023-03-26T11:50:25.777Z,38.18
2023-03-26T11:52:57.489Z,37.79
2023-03-26T11:55:27.707Z,37.20
2023-03-26T11:57:58.126Z,36.82
2023-03-26T12:00:27.628Z,37.18
2023-03-26T12:02:59.015Z,36.60
2023-03-26T12:05:36.670Z,38.97
2023-03-26T12:08:17.340Z,37.03
2023-03-26T12:10:45.536Z,36.87
2023-03-26T12:13:28.282Z,36.86
2023-03-26T12:16:10.034Z,36.12
2023-03-26T12:18:38.351Z,36.62
2023-03-26T12:21:16.068Z,36.85
2023-03-26T12:23:43.582Z,35.95
2023-03-26T12:26:16.742Z,36.10
2023-03-26T12:28:51.264Z,35.94
2023-03-26T12:31:19.494Z,36.47
2023-03-26T12:34:05.036Z,36.54
2023-03-26T12:36:35.901Z,36.58
2023-03-26T12:40:08.955Z,35.39
2023-03-26T12:44:42.198Z,34.97
2023-03-26T12:45:23.723Z,34.17
2023-03-26T12:47:58.313Z,34.20
2023-03-26T12:50:51.280Z,34.45
2023-03-26T12:53:38.515Z,34.09
2023-03-26T12:56:08.142Z,33.95
2023-03-26T12:58:55.121Z,33.99
2023-03-26T13:01:37.148Z,33.44
2023-03-26T13:04:22.393Z,33.26
2023-03-26T13:07:01.735Z,32.90
2023-03-26T13:10:11.535Z,33.40
2023-03-26T13:13:16.985Z,33.26
2023-03-26T13:15:52.556Z,32.97
2023-03-26T13:18:23.429Z,32.39
2023-03-26T13:20:53.476Z,31.73
2023-03-26T13:23:40.255Z,31.79
2023-03-26T13:26:19.021Z,31.71
2023-03-26T13:29:08.702Z,31.75
2023-03-26T13:31:41.302Z,31.57
2023-03-26T13:34:14.262Z,31.84
2023-03-26T13:37:23.183Z,30.88
2023-03-26T13:39:52.758Z,30.90
2023-03-26T13:42:37.889Z,30.36
2023-03-26T13:45:27.754Z,29.67
2023-03-26T13:47:57.351Z,29.18
2023-03-26T13:50:29.069Z,29.69
2023-03-26T13:53:07.960Z,29.75
2023-03-26T13:55:37.459Z,30.01
2023-03-26T13:58:17.135Z,29.22
2023-03-26T14:01:12.497Z,29.02
2023-03-26T14:04:16.047Z,29.64
2023-03-26T14:06:57.369Z,29.18
2023-03-26T14:10:01.257Z,27.15
2023-03-26T14:12:59.339Z,27.00
2023-03-26T14:15:48.233Z,26.76
2023-03-26T14:18:20.956Z,25.98
2023-03-26T14:21:07.288Z,24.72
2023-03-26T14:24:23.265Z,25.25
2023-03-26T14:27:19.814Z,25.68
2023-03-26T14:30:27.987Z,25.17
2023-03-26T14:33:27.272Z,25.42
2023-03-26T14:35:57.300Z,24.95
2023-03-26T14:38:39.318Z,24.68
2023-03-26T14:41:08.990Z,24.01
2023-03-26T14:44:00.131Z,23.83
2023-03-26T14:46:38.621Z,23.85
2023-03-26T14:49:28.496Z,24.30
2023-03-26T14:52:10.968Z,23.56
2023-03-26T14:54:42.872Z,23.43
2023-03-26T14:57:42.310Z,23.06
2023-03-26T15:00:39.862Z,23.43
2023-03-26T15:03:09.603Z,38.85
2023-03-26T15:05:45.967Z,42.31
2023-03-26T15:08:43.347Z,38.12
2023-03-26T15:11:41.157Z,43.80
2023-03-26T15:14:36.981Z,47.19
2023-03-26T15:17:08.348Z,48.48
2023-03-26T15:19:52.172Z,49.15
2023-03-26T15:22:32.469Z,49.62
2023-03-26T15:25:43.852Z,49.87
2023-03-26T15:28:55.492Z,50.90
2023-03-26T15:32:10.498Z,50.00
2023-03-26T15:35:06.170Z,50.40
2023-03-26T15:37:54.973Z,50.24
2023-03-26T15:40:30.976Z,51.17
2023-03-26T15:43:20.090Z,51.64
2023-03-26T15:45:56.456Z,52.13
2023-03-26T15:48:35.899Z,52.86
2023-03-26T15:51:23.076Z,52.59
2023-03-26T15:54:09.406Z,54.41
2023-03-26T15:57:00.030Z,54.75
2023-03-26T15:59:55.661Z,54.88
2023-03-26T16:02:44.599Z,55.64
2023-03-26T16:05:26.666Z,55.29
2023-03-26T16:08:19.534Z,54.46
2023-03-26T16:10:52.581Z,54.25
2023-03-26T16:13:49.583Z,55.07
2023-03-26T16:16:18.941Z,55.11
2023-03-26T16:18:58.484Z,55.15
2023-03-26T16:21:55.919Z,55.47
2023-03-26T16:24:26.699Z,55.50
2023-03-26T16:27:17.196Z,55.96
2023-03-26T16:30:32.954Z,55.76
2023-03-26T16:33:19.155Z,56.05
2023-03-26T16:36:08.303Z,56.20
2023-03-26T16:39:15.837Z,56.87
2023-03-26T16:41:46.061Z,55.39
2023-03-26T16:44:44.746Z,56.27
2023-03-26T16:47:47.145Z,55.81
2023-03-26T16:50:20.047Z,55.45
2023-03-26T16:53:25.204Z,55.57
2023-03-26T16:56:33.519Z,55.21
2023-03-26T16:59:14.717Z,55.20
2023-03-26T17:01:56.811Z,55.97
2023-03-26T17:04:31.647Z,56.97
2023-03-26T17:07:14.094Z,56.98
2023-03-26T17:09:44.158Z,57.07
2023-03-26T17:12:33.651Z,57.02
2023-03-26T17:15:12.045Z,56.87
2023-03-26T17:18:00.506Z,58.37
2023-03-26T17:20:36.801Z,58.90
2023-03-26T17:23:23.772Z,59.66
2023-03-26T17:26:11.856Z,59.89
2023-03-26T17:29:07.076Z,60.01
2023-03-26T17:32:08.576Z,60.24
2023-03-26T17:34:38.414Z,60.11
2023-03-26T17:37:29.591Z,60.02
2023-03-26T17:40:02.229Z,59.82
2023-03-26T17:42:32.869Z,59.98
2023-03-26T17:45:09.125Z,60.32
2023-03-26T17:47:41.227Z,61.44
2023-03-26T17:50:08.036Z,61.20
2023-03-26T17:53:02.613Z,62.04
2023-03-26T17:55:39.229Z,61.66
2023-03-26T17:58:35.613Z,62.15
2023-03-26T18:01:10.512Z,62.15
2023-03-26T18:03:49.388Z,62.68
2023-03-26T18:06:42.293Z,62.94
2023-03-26T18:09:33.824Z,64.04
2023-03-26T18:12:23.130Z,64.28
2023-03-26T18:15:02.419Z,64.97
2023-03-26T18:17:39.058Z,64.55
2023-03-26T18:20:07.530Z,64.34
2023-03-26T18:22:34.858Z,64.01
2023-03-26T18:25:03.855Z,64.59
2023-03-26T18:27:40.466Z,64.82
2023-03-26T18:30:18.772Z,64.70
2023-03-26T18:33:12.736Z,64.34
2023-03-26T18:35:51.859Z,64.32
2023-03-26T18:38:36.665Z,64.51
2023-03-26T18:41:08.075Z,64.69
2023-03-26T18:43:44.463Z,64.55
2023-03-26T18:46:14.935Z,64.41
2023-03-26T18:48:42.301Z,65.04
2023-03-26T18:51:10.035Z,65.60
2023-03-26T18:53:53.910Z,64.74
2023-03-26T18:56:38.696Z,64.53
2023-03-26T18:59:19.053Z,64.84
2023-03-26T19:01:48.900Z,64.87
2023-03-26T19:04:17.055Z,65.40
2023-03-26T19:06:44.867Z,65.34
2023-03-26T19:09:28.601Z,65.24
2023-03-26T19:12:08.688Z,65.21
2023-03-26T19:14:51.568Z,65.35
2023-03-26T19:17:18.673Z,65.33
2023-03-26T19:19:45.686Z,65.13
2023-03-26T19:22:12.552Z,65.29
2023-03-26T19:24:42.007Z,65.24
2023-03-26T19:27:10.957Z,65.13
2023-03-26T19:29:38.309Z,65.71
2023-03-26T19:32:32.423Z,65.79
2023-03-26T19:35:02.084Z,65.65
2023-03-26T19:37:31.008Z,65.38
2023-03-26T19:40:12.775Z,65.01
2023-03-26T19:42:43.048Z,65.07
2023-03-26T19:45:16.575Z,64.98
2023-03-26T19:47:48.616Z,65.49
2023-03-26T19:50:30.334Z,65.00
2023-03-26T19:53:18.925Z,64.87
2023-03-26T19:56:13.296Z,65.56
2023-03-26T19:58:41.769Z,65.87
2023-03-26T20:01:24.228Z,65.53
2023-03-26T20:03:54.952Z,65.38
2023-03-26T20:06:30.682Z,65.28
2023-03-26T20:09:01.407Z,65.35
2023-03-26T20:11:34.231Z,65.04
2023-03-26T20:14:01.702Z,65.08
2023-03-26T20:16:34.269Z,65.53
2023-03-26T20:19:04.558Z,65.58
2023-03-26T20:21:34.825Z,65.88
2023-03-26T20:24:02.078Z,65.71
2023-03-26T20:26:29.075Z,65.31
2023-03-26T20:28:56.157Z,65.00
2023-03-26T20:31:26.264Z,64.62
2023-03-26T20:33:54.295Z,64.18
2023-03-26T20:36:33.186Z,64.12
2023-03-26T20:39:02.060Z,64.05
2023-03-26T20:41:29.118Z,63.91
2023-03-26T20:43:56.123Z,63.62
2023-03-26T20:46:31.482Z,63.78
2023-03-26T20:48:59.837Z,63.55
2023-03-26T20:51:28.693Z,59.14
2023-03-26T20:53:56.281Z,56.34
2023-03-26T20:56:23.572Z,55.25
2023-03-26T20:59:03.706Z,48.46
2023-03-26T21:01:35.189Z,42.75
2023-03-26T21:04:04.285Z,45.29
2023-03-26T21:06:31.172Z,41.81
2023-03-26T21:08:58.363Z,42.50
2023-03-26T21:11:41.910Z,41.63
2023-03-26T21:14:39.122Z,43.02
2023-03-26T21:17:08.193Z,43.71
2023-03-26T21:19:35.263Z,44.63
2023-03-26T21:22:37.224Z,45.73
2023-03-26T21:25:32.171Z,45.96
2023-03-26T21:28:32.235Z,42.53
2023-03-26T21:31:15.235Z,40.51
2023-03-26T21:33:42.638Z,41.37
2023-03-26T21:36:10.929Z,39.76
2023-03-26T21:38:38.785Z,39.23
2023-03-26T21:41:05.898Z,37.40
2023-03-26T21:43:32.621Z,34.37
2023-03-26T21:45:59.715Z,34.73
2023-03-26T21:48:28.588Z,32.71
2023-03-26T21:50:55.709Z,32.04
2023-03-26T21:53:24.151Z,32.81
2023-03-26T21:56:32.385Z,32.66
2023-03-26T21:58:59.140Z,32.46
2023-03-26T22:01:37.797Z,32.35
2023-03-26T22:04:11.168Z,32.19
2023-03-26T22:06:51.401Z,32.21
2023-03-26T22:09:23.451Z,31.83
2023-03-26T22:11:53.586Z,31.48
2023-03-26T22:14:20.723Z,31.53
2023-03-26T22:16:47.784Z,31.44
2023-03-26T22:19:14.611Z,31.69
2023-03-26T22:21:41.378Z,31.86
2023-03-26T22:24:08.655Z,31.37
2023-03-26T22:26:37.481Z,32.10
2023-03-26T22:29:05.200Z,32.02
2023-03-26T22:31:32.051Z,32.28
2023-03-26T22:33:59.001Z,32.62
2023-03-26T22:36:25.851Z,32.60
2023-03-26T22:38:54.042Z,32.24
2023-03-26T22:41:22.414Z,32.85
2023-03-26T22:43:52.152Z,32.70
2023-03-26T22:46:19.652Z,33.11
2023-03-26T22:48:57.623Z,32.88
2023-03-26T22:51:24.342Z,33.80
2023-03-26T22:53:51.078Z,33.43
2023-03-26T22:56:18.840Z,33.81
2023-03-26T22:58:47.600Z,33.99
2023-03-26T23:01:23.236Z,34.23
2023-03-26T23:03:50.677Z,34.66
2023-03-26T23:06:17.559Z,34.70
2023-03-26T23:08:44.634Z,35.12
2023-03-26T23:11:13.571Z,35.30
2023-03-26T23:13:41.321Z,35.61
2023-03-26T23:16:10.154Z,35.63
2023-03-26T23:18:37.924Z,35.82
2023-03-26T23:21:06.056Z,35.89
2023-03-26T23:23:39.821Z,36.30
2023-03-26T23:26:07.264Z,36.24
2023-03-26T23:28:35.172Z,36.54
2023-03-26T23:31:04.980Z,36.52
2023-03-26T23:33:35.538Z,36.76
2023-03-26T23:36:09.190Z,37.03
2023-03-26T23:38:43.764Z,37.15
2023-03-26T23:41:15.178Z,37.32
2023-03-26T23:43:54.661Z,37.65
2023-03-26T23:46:30.466Z,37.90
2023-03-26T23:49:00.109Z,38.12
2023-03-26T23:51:27.171Z,38.19
2023-03-26T23:53:54.016Z,38.63
2023-03-26T23:56:21.307Z,38.48
2023-03-26T23:58:51.610Z,38.76
